Saint David's, Bermuda

9:47 PM ADT on August 28, 2016 (GMT -0300)
Bermuda International | | Change Station

Elev 10 ft 32.36 °N, 64.68 °W | Updated 52 minutes ago

Partly Cloudy
Partly Cloudy
82 °F
Feels Like 88 °F
N
12
Wind Variable Wind from East

Today
High -- | Low -- °F
--% Chance of Precip.
Yesterday
High -- | Low -- °F
Precip. -- in
Pressure 30.06 in
Visibility 6.2 miles
Clouds Few 1700 ft
Few 30000 ft
Heat Index 88 °F
Dew Point 73 °F
Humidity 74%
Rainfall 0.00 in
Snow Depth Not available.
6:51 AM 7:47 PM
Waning Crescent, 12% visible
METAR TXKF 282355Z 08010KT 9999 FEW017 FEW300 28/23 Q1018
Pressure 30.06 in
Visibility 6.2 miles
Clouds Few 1700 ft
Few 30000 ft
Heat Index 88 °F
Dew Point 73 °F
Humidity 74%
Rainfall 0.00 in
Snow Depth Not available.
6:51 AM 7:47 PM
Waning Crescent, 12% visible
METAR TXKF 282355Z 08010KT 9999 FEW017 FEW300 28/23 Q1018

10-Day Weather Forecast

No radar image for this location.
×

Almanac

Astronomy

Aug. 28, 2016 Rise Set
Actual Time
Civil Twilight
Nautical Twilight
Astronomical Twilight
Moon
Length of Visible Light
Length of Day
Tomorrow will be .
, % of the Moon is Illuminated

Today's Extremes

Country Highs Country Lows

Community

WunderPhotos

Upload Photos

1,935,749 photos uploaded!

WunderBlog® & News

Nearby

Air Quality

  Air Quality AQ Index Pollutant
Not available.

Snow Depth

Station Depth Elevation

Earthquake Activity

City Distance Mag. Time & Date
Minimum magnitude displayed is 2.5.

Coastal Water Temperatures

Place Temperature

Stations

Nearby Weather Stations

Station Location Temp. Windchill Dew Point Humidity Wind Precip. Elev Updated Type